Pagrindinis puslapis
METAR-TAF:

METAR-TAF

Oro uostai :

Ubonratčathanis, Tailandas

platuma: 15-15N, ilguma: 104-52E, Aukštis: 123 m

Dabartinis oras

Ataskaita buvo paskelbta 19 valandos ir 44 minutes, ne 18:00 UTC
Vėjas 9 kt iš Šiaurės/Šiaurės Vakarų, svyruoja nuo Vakarų/Šiaurės Vakarų ir Šiaurės/Šiaurės Rytų
Temperatūra 22°C
Drėgmė 100%
Slėgis 1002 hPa
Matomumas: 7000 m
Išsisklaidę debesys ne aukštis 1000 ft
Su prošvaistėmis ne aukštis 2000 ft
Apsiniaukę ne aukštis 6500 ft
lietus

METAR: VTUU 281800Z 34009KT 300V020 7000 -RA SCT010 BKN020 OVC065 22/22 Q1002 NOSIG

Laikas: 20:44 (13:44 UTC)

Prognozė

Ataskaita buvo paskelbta 2 valandos ir 44 minutes, ne 11:00 UTC
Prognozė galioja nuo 29 metu 12 UTC su 30 metu 12 UTC
Vėjas 10 kt iš Pietų
Matomumas: 8000 m
Išsisklaidę debesys ne aukštis 2000 ft
Laikinai
nuo 30 metu 07 UTC su 30 metu 10 UTC
Vėjas 12 kt iš Rytų
Matomumas: 4500 m
Su prošvaistėmis ne aukštis 2000 ft
lietus

TAF: VTUU 291100Z 2912/3012 18010KT 8000 SCT020 TEMPO 3007/3010 09012KT 4500 RA BKN020

Orai ataskaitas ir orų prognozės (METAR, TAF).

turimą stotys yra geltonos ir raudonos taškus žemėlapyje.

Perkelti pele per norėdami pamatyti stoties vardą.

Tada spustelėkite, norėdami matyti oro stebėjimo ir prognozės.

Norėdami pakeisti žemėlapį: spustelėkite ant žalios mygtukų su juodo kryžiaus žemyn,; žalią mygtuką su brūkšneliu, jei norite nutolinti; arba žalių rodyklių gretimoms žemėlapius.


METAR-TAF: